Time;durP1;ratioP1;P1;durP2;ratioP2;P2;SDS_P1;SDS_P2;PMS_P1;PMS_P2;Temp;Humidity;BMP_temperature;BMP_pressure;BME280_temperature;BME280_humidity;BME280_pressure;Samples;Min_cycle;Max_cycle;Signal;HPM_P1;HPM_P2
2021/07/10 00:01:19;;;;;;;0.77;0.77;;;;;;;22.76;57.17;102022.13;5098953;28;20050;-66
2021/07/10 00:03:45;;;;;;;0.60;0.60;;;;;;;22.75;56.97;102020.47;5097075;28;20038;-66
2021/07/10 00:06:10;;;;;;;0.70;0.70;;;;;;;22.76;57.16;102018.66;5095204;28;20089;-67
2021/07/10 00:08:36;;;;;;;0.60;0.60;;;;;;;22.75;57.16;102023.13;5101742;28;20035;-67
2021/07/10 00:11:05;;;;;;;0.80;0.80;;;;;;;22.73;57.37;102014.53;5100577;28;20047;-66
2021/07/10 00:13:30;;;;;;;0.80;0.80;;;;;;;22.74;57.26;102018.81;5097229;28;20036;-66
2021/07/10 00:15:56;;;;;;;0.60;0.60;;;;;;;22.73;57.02;102011.03;5101340;28;20436;-67
2021/07/10 00:18:21;;;;;;;0.52;0.52;;;;;;;22.73;57.19;102011.03;5098429;28;20044;-66
2021/07/10 00:20:47;;;;;;;0.80;0.80;;;;;;;22.72;56.97;102004.91;5098192;28;20090;-68
2021/07/10 00:23:13;;;;;;;0.50;0.50;;;;;;;22.71;57.32;102002.41;5107094;28;20548;-66
2021/07/10 00:25:39;;;;;;;0.60;0.60;;;;;;;22.70;57.38;102001.59;5104867;28;20127;-67
2021/07/10 00:28:07;;;;;;;0.68;0.68;;;;;;;22.70;57.09;102000.75;5102683;28;20051;-66
2021/07/10 00:30:32;;;;;;;0.70;0.70;;;;;;;22.69;57.09;102009.72;5086347;28;20086;-66
2021/07/10 00:32:58;;;;;;;0.77;0.77;;;;;;;22.68;57.23;102006.25;5103071;28;20107;-66
2021/07/10 00:35:23;;;;;;;0.63;0.63;;;;;;;22.68;57.15;102000.94;5105754;28;20043;-67
2021/07/10 00:37:49;;;;;;;0.70;0.70;;;;;;;22.67;57.27;102001.09;5079603;28;20477;-66
2021/07/10 00:40:15;;;;;;;0.52;0.52;;;;;;;22.67;57.27;101993.97;5106025;28;20040;-67
2021/07/10 00:42:41;;;;;;;0.60;0.60;;;;;;;22.66;57.36;101997.63;5105388;28;20115;-66
2021/07/10 00:45:10;;;;;;;0.60;0.60;;;;;;;22.65;57.32;101995.16;5105878;28;20568;-67
2021/07/10 00:47:37;;;;;;;0.70;0.70;;;;;;;22.65;57.43;101993.31;5098719;28;20765;-67
2021/07/10 00:50:09;;;;;;;0.75;0.75;;;;;;;22.64;57.50;101985.53;5099934;28;20107;-67
2021/07/10 00:52:35;;;;;;;0.70;0.70;;;;;;;22.64;57.30;101983.69;5102274;28;20046;-66
2021/07/10 00:55:01;;;;;;;0.70;0.70;;;;;;;22.63;57.18;101976.72;5099514;28;20035;-66
2021/07/10 00:57:26;;;;;;;0.65;0.65;;;;;;;22.62;57.47;101975.03;5105452;28;20428;-66
2021/07/10 00:59:52;;;;;;;0.63;0.63;;;;;;;22.62;57.21;101977.69;5104861;28;20047;-66
2021/07/10 01:02:18;;;;;;;0.70;0.70;;;;;;;22.61;57.54;101968.91;5105734;28;20027;-66
2021/07/10 01:04:43;;;;;;;0.70;0.70;;;;;;;22.60;57.66;101972.56;5106568;28;20405;-67
2021/07/10 01:07:09;;;;;;;0.73;0.73;;;;;;;22.60;57.61;101967.25;5107458;28;20036;-67
2021/07/10 01:09:35;;;;;;;0.70;0.70;;;;;;;22.60;57.49;101961.94;5096125;28;20028;-66
2021/07/10 01:12:00;;;;;;;0.60;0.60;;;;;;;22.60;57.23;101964.59;5101988;28;20043;-66
2021/07/10 01:14:26;;;;;;;0.80;0.80;;;;;;;22.60;57.13;101964.59;5105478;28;20931;-67
2021/07/10 01:16:51;;;;;;;0.60;0.60;;;;;;;22.58;57.50;101955.97;5087597;28;20066;-66
2021/07/10 01:19:26;;;;;;;0.50;0.50;;;;;;;22.59;57.32;101962.94;5091765;28;20554;-66
2021/07/10 01:21:56;;;;;;;0.70;0.70;;;;;;;22.58;57.41;101961.28;5097827;28;20058;-67
2021/07/10 01:24:22;;;;;;;0.55;0.55;;;;;;;22.57;57.26;101959.63;5105351;28;20454;-66
2021/07/10 01:26:48;;;;;;;0.65;0.65;;;;;;;22.57;57.33;101951.66;5100959;28;20031;-66
2021/07/10 01:29:14;;;;;;;0.73;0.73;;;;;;;22.57;57.20;101954.31;5101087;28;20089;-66
2021/07/10 01:31:41;;;;;;;0.80;0.80;;;;;;;22.56;57.34;101957.97;5084841;28;20055;-66
2021/07/10 01:34:07;;;;;;;0.68;0.68;;;;;;;22.56;57.44;101950.03;5104747;28;20793;-66
2021/07/10 01:36:33;;;;;;;0.77;0.77;;;;;;;22.55;57.37;101953.66;5096249;28;20122;-67
2021/07/10 01:38:59;;;;;;;0.40;0.40;;;;;;;22.56;57.29;101965.13;5104935;28;20078;-66
2021/07/10 01:41:25;;;;;;;0.80;0.80;;;;;;;22.54;57.64;101959.16;5086523;28;20052;-67
2021/07/10 01:43:50;;;;;;;0.70;0.70;;;;;;;22.54;57.37;101959.16;5102428;28;20036;-66
2021/07/10 01:46:18;;;;;;;0.80;0.80;;;;;;;22.53;57.27;101960.97;5079034;28;20036;-67
2021/07/10 01:48:45;;;;;;;0.70;0.70;;;;;;;22.53;57.51;101957.50;5103752;28;20492;-66
2021/07/10 01:51:10;;;;;;;0.77;0.77;;;;;;;22.52;57.31;101956.69;5080134;28;20027;-66
2021/07/10 01:53:36;;;;;;;0.65;0.65;;;;;;;22.52;57.32;101954.03;5087123;28;20567;-66
2021/07/10 01:56:02;;;;;;;0.80;0.80;;;;;;;22.51;57.33;101947.06;5100292;28;20039;-66
2021/07/10 01:58:28;;;;;;;0.68;0.68;;;;;;;22.51;57.71;101947.06;5087390;28;20039;-66
2021/07/10 02:00:53;;;;;;;1.00;1.00;;;;;;;22.50;57.49;101953.38;5098467;28;20043;-66
2021/07/10 02:03:19;;;;;;;0.60;0.60;;;;;;;22.50;57.48;101944.56;5083569;28;20032;-67
2021/07/10 02:05:45;;;;;;;0.63;0.63;;;;;;;22.48;57.62;101943.91;5096539;28;20051;-67
2021/07/10 02:08:10;;;;;;;0.65;0.65;;;;;;;22.48;57.33;101950.06;5105408;28;20035;-67
2021/07/10 02:10:36;;;;;;;0.70;0.70;;;;;;;22.48;57.36;101949.22;5104281;28;20036;-66
2021/07/10 02:13:08;;;;;;;0.63;0.63;;;;;;;22.47;57.48;101950.22;5100668;28;20127;-66
2021/07/10 02:15:34;;;;;;;0.70;0.70;;;;;;;22.46;57.58;101951.22;5098310;28;20039;-66
2021/07/10 02:18:01;;;;;;;0.80;0.80;;;;;;;22.44;57.71;101954.06;5098607;28;20481;-67
2021/07/10 02:20:26;;;;;;;0.60;0.60;;;;;;;22.44;57.65;101961.16;5096022;28;20048;-66
2021/07/10 02:22:53;;;;;;;0.80;0.80;;;;;;;22.43;57.59;101947.06;5084685;28;20551;-66
2021/07/10 02:25:20;;;;;;;0.63;0.63;;;;;;;22.42;57.44;101945.41;5103472;28;20044;-67
2021/07/10 02:27:47;;;;;;;0.63;0.63;;;;;;;22.42;57.74;101944.56;5077682;28;20032;-67
2021/07/10 02:30:16;;;;;;;0.65;0.65;;;;;;;22.41;57.49;101940.28;5105164;28;20032;-67
2021/07/10 02:32:42;;;;;;;0.60;0.60;;;;;;;22.43;57.43;101935.63;5094269;28;20123;-67
2021/07/10 02:35:09;;;;;;;0.90;0.90;;;;;;;22.42;57.86;101937.44;5093394;28;20035;-67
2021/07/10 02:37:36;;;;;;;0.70;0.70;;;;;;;22.41;57.61;101930.47;5103771;28;20043;-67
2021/07/10 02:40:05;;;;;;;0.70;0.70;;;;;;;22.41;57.48;101925.16;5082593;28;20350;-66
2021/07/10 02:42:31;;;;;;;0.60;0.60;;;;;;;22.40;57.60;101926.16;5092679;28;20471;-66
2021/07/10 02:44:58;;;;;;;0.70;0.70;;;;;;;22.39;57.72;101924.53;5103794;28;20024;-66
2021/07/10 02:47:24;;;;;;;0.68;0.68;;;;;;;22.38;57.36;101928.16;5115233;28;20035;-66
2021/07/10 02:49:50;;;;;;;0.70;0.70;;;;;;;22.38;57.83;101920.22;5103315;28;20035;-67
2021/07/10 02:52:15;;;;;;;0.68;0.68;;;;;;;22.37;57.89;101926.53;5087103;28;20051;-66
2021/07/10 02:54:41;;;;;;;0.80;0.80;;;;;;;22.38;57.59;101927.34;5096984;28;20047;-66
2021/07/10 02:57:07;;;;;;;0.70;0.70;;;;;;;22.37;57.69;101923.03;5087345;28;20050;-66
2021/07/10 02:59:33;;;;;;;0.80;0.80;;;;;;;22.36;57.84;101924.03;5102611;28;20032;-66
2021/07/10 03:01:59;;;;;;;0.80;0.80;;;;;;;22.35;57.91;101928.53;5107783;28;20168;-66
2021/07/10 03:04:25;;;;;;;0.70;0.70;;;;;;;22.35;57.47;101922.38;5103425;28;20094;-67
2021/07/10 03:06:50;;;;;;;0.80;0.80;;;;;;;22.34;57.42;101924.22;5109143;28;20035;-66
2021/07/10 03:09:16;;;;;;;0.80;0.80;;;;;;;22.34;57.62;101926.03;5099957;28;20125;-66
2021/07/10 03:11:42;;;;;;;0.60;0.60;;;;;;;22.33;57.40;101930.53;5109779;28;20104;-66
2021/07/10 03:14:07;;;;;;;0.90;0.90;;;;;;;22.33;57.42;101927.03;5108086;28;20113;-66
2021/07/10 03:16:33;;;;;;;0.68;0.68;;;;;;;22.32;57.55;101923.56;5105788;28;20055;-66
2021/07/10 03:18:58;;;;;;;0.50;0.50;;;;;;;22.30;57.90;101923.72;5111912;28;20067;-66
2021/07/10 03:21:24;;;;;;;0.85;0.85;;;;;;;22.29;57.73;101916.75;5104937;27;20537;-66
2021/07/10 03:23:49;;;;;;;0.60;0.60;;;;;;;22.30;57.61;101914.94;5121182;27;20046;-66
2021/07/10 03:26:15;;;;;;;0.80;0.80;;;;;;;22.29;57.59;101914.13;5121184;27;20390;-66
2021/07/10 03:28:41;;;;;;;0.80;0.80;;;;;;;22.28;57.93;101909.81;5111649;27;20027;-66
2021/07/10 03:31:07;;;;;;;0.80;0.80;;;;;;;22.29;57.72;101905.31;5104036;27;20369;-66
2021/07/10 03:33:36;;;;;;;0.70;0.70;;;;;;;22.29;57.81;101907.97;5108131;27;20509;-66
2021/07/10 03:36:05;;;;;;;0.75;0.75;;;;;;;22.28;57.80;101907.16;5111294;27;20031;-66
2021/07/10 03:38:30;;;;;;;0.90;0.90;;;;;;;22.28;57.69;101901.03;5115028;27;20032;-67
2021/07/10 03:40:56;;;;;;;0.70;0.70;;;;;;;22.27;57.90;101902.03;5103165;27;20409;-67
2021/07/10 03:43:22;;;;;;;0.60;0.60;;;;;;;22.26;57.70;101898.53;5111881;27;20039;-67
2021/07/10 03:45:47;;;;;;;0.90;0.90;;;;;;;22.26;57.66;101890.56;5110805;27;20034;-66
2021/07/10 03:48:13;;;;;;;0.70;0.70;;;;;;;22.26;57.71;101892.38;5112109;27;20413;-67
2021/07/10 03:50:38;;;;;;;0.70;0.70;;;;;;;22.26;57.58;101889.72;5089370;27;20168;-66
2021/07/10 03:53:04;;;;;;;0.70;0.70;;;;;;;22.25;57.88;101891.53;5110583;27;20039;-67
2021/07/10 03:55:30;;;;;;;0.57;0.57;;;;;;;22.24;57.62;101881.94;5106576;27;20043;-66
2021/07/10 03:57:56;;;;;;;0.70;0.70;;;;;;;22.24;57.71;101883.75;5115629;27;20038;-66
2021/07/10 04:00:23;;;;;;;0.57;0.57;;;;;;;22.24;57.51;101884.59;5103867;27;20055;-66
2021/07/10 04:02:49;;;;;;;0.60;0.60;;;;;;;22.24;57.89;101889.91;5109175;27;20034;-66
2021/07/10 04:05:15;;;;;;;0.63;0.63;;;;;;;22.24;57.59;101881.09;5110049;27;20044;-67
2021/07/10 04:07:41;;;;;;;0.77;0.77;;;;;;;22.24;57.75;101868.66;5121241;27;20092;-67
2021/07/10 04:10:09;;;;;;;0.70;0.70;;;;;;;22.24;57.76;101868.66;5113166;27;20099;-67
2021/07/10 04:12:34;;;;;;;0.60;0.60;;;;;;;22.25;57.61;101864.19;5089910;28;20036;-66
2021/07/10 04:15:01;;;;;;;0.70;0.70;;;;;;;22.24;57.82;101870.50;5081643;27;20047;-67
2021/07/10 04:17:28;;;;;;;0.55;0.55;;;;;;;22.23;57.87;101867.00;5100310;27;20096;-66
2021/07/10 04:19:54;;;;;;;0.70;0.70;;;;;;;22.23;57.63;101867.00;5102112;27;20100;-66
2021/07/10 04:22:19;;;;;;;0.70;0.70;;;;;;;22.23;57.59;101869.66;5113784;27;20126;-66
2021/07/10 04:24:45;;;;;;;0.80;0.80;;;;;;;22.24;57.67;101873.16;5098175;27;20067;-66
2021/07/10 04:27:10;;;;;;;0.63;0.63;;;;;;;22.24;57.68;101868.66;5126592;27;20149;-66
2021/07/10 04:29:36;;;;;;;0.80;0.80;;;;;;;22.23;57.54;101864.34;5123116;27;20077;-66
2021/07/10 04:32:01;;;;;;;0.60;0.60;;;;;;;22.22;57.66;101860.06;5108152;27;20191;-66
2021/07/10 04:34:27;;;;;;;0.60;0.60;;;;;;;22.23;57.55;101859.06;5109847;27;20040;-66
2021/07/10 04:36:52;;;;;;;0.70;0.70;;;;;;;22.23;57.77;101864.34;5107817;27;20047;-67
2021/07/10 04:39:18;;;;;;;0.70;0.70;;;;;;;22.23;57.32;101860.88;5108810;27;20038;-67
2021/07/10 04:41:43;;;;;;;0.55;0.55;;;;;;;22.22;57.53;101867.19;5103152;27;20042;-67
2021/07/10 04:44:09;;;;;;;0.85;0.85;;;;;;;22.22;57.63;101865.34;5118127;27;20042;-67
2021/07/10 04:46:34;;;;;;;0.77;0.77;;;;;;;22.22;57.55;101867.19;5100513;27;20100;-66
2021/07/10 04:49:00;;;;;;;0.88;0.88;;;;;;;22.22;57.45;101875.16;5089147;28;20373;-67
2021/07/10 04:51:26;;;;;;;0.85;0.85;;;;;;;22.22;57.41;101872.50;5106766;27;20052;-66
2021/07/10 04:53:51;;;;;;;0.70;0.70;;;;;;;22.21;57.74;101866.34;5082399;28;20032;-66
2021/07/10 04:56:17;;;;;;;0.63;0.63;;;;;;;22.23;57.86;101868.84;5123821;27;20088;-66
2021/07/10 04:58:44;;;;;;;0.70;0.70;;;;;;;22.23;57.68;101871.50;5109918;27;20040;-66
2021/07/10 05:01:12;;;;;;;0.68;0.68;;;;;;;22.23;57.54;101867.00;5109518;27;20043;-67
2021/07/10 05:03:41;;;;;;;0.63;0.63;;;;;;;22.23;57.79;101858.22;5106896;28;20050;-66
2021/07/10 05:06:10;;;;;;;0.70;0.70;;;;;;;22.24;57.42;101866.00;5092984;27;20042;-66
2021/07/10 05:08:36;;;;;;;0.50;0.50;;;;;;;22.24;57.52;101859.88;5099298;27;20788;-66
2021/07/10 05:11:02;;;;;;;0.80;0.80;;;;;;;22.25;57.59;101861.53;5106104;27;20039;-66
2021/07/10 05:13:27;;;;;;;0.73;0.73;;;;;;;22.25;57.59;101858.88;5109365;27;20617;-66
2021/07/10 05:15:53;;;;;;;0.70;0.70;;;;;;;22.26;57.46;101857.88;5101421;27;20058;-66
2021/07/10 05:18:19;;;;;;;0.70;0.70;;;;;;;22.25;57.60;101856.22;5118525;27;20035;-66
2021/07/10 05:20:47;;;;;;;0.60;0.60;;;;;;;22.26;57.44;101855.22;5097846;27;20138;-67
2021/07/10 05:23:13;;;;;;;0.47;0.47;;;;;;;22.25;57.30;101843.78;5100077;27;20062;-66
2021/07/10 05:25:39;;;;;;;0.70;0.70;;;;;;;22.25;57.37;101849.09;5100910;27;20402;-66
2021/07/10 05:28:04;;;;;;;0.68;0.68;;;;;;;22.26;57.67;101847.28;5092829;27;20035;-66
2021/07/10 05:30:30;;;;;;;0.60;0.60;;;;;;;22.25;57.65;101846.44;5079955;28;20031;-66
2021/07/10 05:32:56;;;;;;;0.63;0.63;;;;;;;22.25;57.27;101841.13;5102082;27;20564;-66
2021/07/10 05:35:22;;;;;;;0.70;0.70;;;;;;;22.25;57.36;101835.81;5116101;27;20042;-66
2021/07/10 05:37:49;;;;;;;0.60;0.60;;;;;;;22.25;57.19;101833.16;5098088;28;20040;-66
2021/07/10 05:40:16;;;;;;;0.70;0.70;;;;;;;22.26;57.36;101834.00;5110705;27;20039;-67
2021/07/10 05:42:41;;;;;;;0.75;0.75;;;;;;;22.27;57.28;101831.19;5098047;27;20054;-66
2021/07/10 05:45:07;;;;;;;0.82;0.82;;;;;;;22.27;57.40;101827.72;5113736;27;20039;-67
2021/07/10 05:47:34;;;;;;;0.73;0.73;;;;;;;22.27;57.49;101828.56;5110200;27;20035;-66
2021/07/10 05:49:59;;;;;;;0.65;0.65;;;;;;;22.27;57.07;101835.69;5106200;27;20039;-66
2021/07/10 05:52:25;;;;;;;0.50;0.50;;;;;;;22.27;57.34;101839.16;5118716;27;20032;-66
2021/07/10 05:54:50;;;;;;;0.50;0.50;;;;;;;22.27;57.45;101835.69;5102176;27;20515;-67
2021/07/10 05:57:16;;;;;;;0.85;0.85;;;;;;;22.29;57.58;101833.69;5061015;28;20621;-66
2021/07/10 05:59:42;;;;;;;0.70;0.70;;;;;;;22.28;57.38;101838.16;5098244;27;20043;-66
2021/07/10 06:02:07;;;;;;;0.65;0.65;;;;;;;22.29;57.52;101839.00;5103532;27;20120;-66
2021/07/10 06:04:36;;;;;;;0.60;0.60;;;;;;;22.28;57.13;101832.84;5110293;27;20039;-67
2021/07/10 06:07:03;;;;;;;0.60;0.60;;;;;;;22.30;57.48;101838.81;5106174;28;20035;-66
2021/07/10 06:09:29;;;;;;;0.80;0.80;;;;;;;22.29;57.08;101839.81;5116883;27;20031;-66
2021/07/10 06:11:55;;;;;;;0.60;0.60;;;;;;;22.30;57.46;101844.13;5101407;27;20537;-66
2021/07/10 06:14:21;;;;;;;0.68;0.68;;;;;;;22.31;57.49;101839.66;5100901;27;20114;-66
2021/07/10 06:16:47;;;;;;;0.60;0.60;;;;;;;22.31;57.45;101840.47;5106163;27;20050;-67
2021/07/10 06:19:13;;;;;;;0.57;0.57;;;;;;;22.34;57.17;101838.47;5104421;27;20281;-66
2021/07/10 06:21:38;;;;;;;0.60;0.60;;;;;;;22.34;57.38;101843.78;5111805;27;20072;-66
2021/07/10 06:24:04;;;;;;;0.88;0.88;;;;;;;22.34;57.00;101841.94;5107602;27;20035;-66
2021/07/10 06:26:30;;;;;;;0.60;0.60;;;;;;;22.36;57.09;101841.78;5102192;28;20031;-66
2021/07/10 06:28:55;;;;;;;0.65;0.65;;;;;;;22.36;56.89;101842.59;5104345;28;20032;-66
2021/07/10 06:31:21;;;;;;;0.57;0.57;;;;;;;22.37;57.14;101846.91;5102217;28;20489;-66
2021/07/10 06:33:47;;;;;;;0.50;0.50;;;;;;;22.37;57.12;101844.25;5115800;27;20031;-66
2021/07/10 06:36:14;;;;;;;0.60;0.60;;;;;;;22.38;57.07;101845.06;5102486;28;20621;-67
2021/07/10 06:38:40;;;;;;;0.70;0.70;;;;;;;22.39;57.16;101849.38;5119933;27;20217;-67
2021/07/10 06:41:06;;;;;;;0.60;0.60;;;;;;;22.40;56.89;101843.06;5097768;28;20063;-66
2021/07/10 06:43:31;;;;;;;0.80;0.80;;;;;;;22.40;57.11;101830.63;5105769;28;20088;-67
2021/07/10 06:45:58;;;;;;;0.63;0.63;;;;;;;22.43;56.87;101834.75;5085317;28;20035;-67
2021/07/10 06:48:24;;;;;;;0.68;0.68;;;;;;;22.44;57.09;101834.63;5109820;28;20035;-66
2021/07/10 06:50:50;;;;;;;0.82;0.82;;;;;;;22.46;56.72;101840.56;5100885;28;20366;-66
2021/07/10 06:53:21;;;;;;;0.70;0.70;;;;;;;22.51;56.96;101845.34;5122669;28;20031;-66
2021/07/10 06:55:51;;;;;;;0.70;0.70;;;;;;;22.52;56.52;101849.66;5105033;27;20090;-66
2021/07/10 06:58:17;;;;;;;0.80;0.80;;;;;;;22.55;56.64;101846.66;5114365;27;20154;-66
2021/07/10 07:00:43;;;;;;;0.60;0.60;;;;;;;22.58;56.47;101847.13;5112950;27;20484;-67
2021/07/10 07:03:09;;;;;;;0.63;0.63;;;;;;;22.61;56.83;101844.13;5100322;27;20039;-66
2021/07/10 07:05:35;;;;;;;0.85;0.85;;;;;;;22.61;56.67;101840.66;5120905;27;20035;-66
2021/07/10 07:08:00;;;;;;;0.63;0.63;;;;;;;22.60;56.61;101844.31;5113945;27;20072;-66
2021/07/10 07:10:26;;;;;;;0.70;0.70;;;;;;;22.60;56.80;101855.75;5109076;27;20036;-66
2021/07/10 07:12:51;;;;;;;0.73;0.73;;;;;;;22.63;56.36;101851.13;5084777;27;20040;-67
2021/07/10 07:15:18;;;;;;;0.50;0.50;;;;;;;22.65;56.73;101849.13;5114010;27;20092;-66
2021/07/10 07:17:44;;;;;;;0.65;0.65;;;;;;;22.72;56.37;101850.06;5109422;27;20058;-66
2021/07/10 07:20:13;;;;;;;0.60;0.60;;;;;;;22.76;56.33;101846.06;5120173;27;20054;-67
2021/07/10 07:22:44;;;;;;;0.80;0.80;;;;;;;22.79;56.17;101851.84;5111089;27;20034;-66
2021/07/10 07:25:10;;;;;;;0.52;0.52;;;;;;;;;;5127620;27;20043;-67
2021/07/10 07:27:36;;;;;;;0.80;0.80;;;;;;;22.83;56.30;101847.88;5125109;27;20050;-67
2021/07/10 07:30:04;;;;;;;0.70;0.70;;;;;;;22.81;56.38;101852.50;5110731;27;20040;-66
2021/07/10 07:32:29;;;;;;;0.60;0.60;;;;;;;;;;5105352;27;20194;-66
2021/07/10 07:34:55;;;;;;;0.70;0.70;;;;;;;22.79;56.04;101848.34;5117823;27;20118;-66
2021/07/10 07:37:21;;;;;;;0.70;0.70;;;;;;;22.79;56.55;101854.50;5109178;27;20039;-66
2021/07/10 07:39:46;;;;;;;0.73;0.73;;;;;;;22.80;56.12;101845.56;5101099;27;20705;-66
2021/07/10 07:42:16;;;;;;;0.60;0.60;;;;;;;22.81;56.52;101849.88;5106604;27;20039;-66
2021/07/10 07:44:42;;;;;;;0.93;0.93;;;;;;;;;;5080422;28;20031;-66
2021/07/10 07:47:09;;;;;;;0.80;0.80;;;;;;;22.79;56.30;101845.69;5116334;27;20796;-67
2021/07/10 07:49:35;;;;;;;0.70;0.70;;;;;;;22.77;56.56;101848.53;5109903;27;20038;-67
2021/07/10 07:52:01;;;;;;;0.60;0.60;;;;;;;22.76;56.32;101840.75;5099928;27;20039;-67
2021/07/10 07:54:27;;;;;;;0.73;0.73;;;;;;;22.75;56.35;101845.22;5112937;27;20116;-67
2021/07/10 07:56:53;;;;;;;0.90;0.90;;;;;;;22.74;56.65;101842.75;5108875;27;20870;-67
2021/07/10 07:59:20;;;;;;;0.77;0.77;;;;;;;22.72;56.51;101850.88;5102812;27;20043;-67
2021/07/10 08:01:45;;;;;;;0.80;0.80;;;;;;;22.73;56.84;101846.41;5107404;27;20031;-69
2021/07/10 08:04:11;;;;;;;0.80;0.80;;;;;;;22.72;56.36;101845.59;5108871;27;20050;-65
2021/07/10 08:06:37;;;;;;;0.90;0.90;;;;;;;22.72;56.43;101844.75;5088640;28;20031;-69
2021/07/10 08:09:04;;;;;;;0.70;0.70;;;;;;;22.72;56.45;101847.41;5109694;27;20043;-69
2021/07/10 08:11:30;;;;;;;0.93;0.93;;;;;;;22.72;56.70;101848.25;5109962;27;20039;-69
2021/07/10 08:13:56;;;;;;;0.70;0.70;;;;;;;22.71;56.46;101843.94;5101059;28;20043;-69
2021/07/10 08:16:21;;;;;;;0.80;0.80;;;;;;;22.70;56.68;101844.09;5096458;27;20481;-69
2021/07/10 08:18:47;;;;;;;0.85;0.85;;;;;;;22.69;56.56;101845.09;5090307;27;20071;-69
2021/07/10 08:21:13;;;;;;;0.65;0.65;;;;;;;22.69;56.50;101845.09;5107449;27;20363;-70
2021/07/10 08:23:39;;;;;;;0.73;0.73;;;;;;;22.69;56.76;101851.25;5106945;27;20390;-69
2021/07/10 08:26:05;;;;;;;0.80;0.80;;;;;;;22.68;56.60;101841.63;5106421;28;20535;-70
2021/07/10 08:28:31;;;;;;;0.73;0.73;;;;;;;22.69;56.72;101837.16;5122824;27;20028;-70
2021/07/10 08:30:57;;;;;;;0.70;0.70;;;;;;;22.67;56.47;101837.31;5086946;28;20105;-69
2021/07/10 08:33:23;;;;;;;0.80;0.80;;;;;;;22.67;56.57;101839.97;5111199;27;20441;-69
2021/07/10 08:35:49;;;;;;;0.95;0.95;;;;;;;22.68;56.46;101840.81;5106606;27;20054;-69
2021/07/10 08:38:14;;;;;;;0.80;0.80;;;;;;;22.67;56.54;101833.84;5099712;27;20511;-69
2021/07/10 08:40:40;;;;;;;0.80;0.80;;;;;;;22.67;56.50;101837.31;5111800;27;20047;-69
2021/07/10 08:43:05;;;;;;;1.00;1.00;;;;;;;22.68;56.51;101830.19;5090689;28;20032;-68
2021/07/10 08:45:33;;;;;;;0.80;0.80;;;;;;;22.66;56.67;101830.34;5088213;28;20234;-68
2021/07/10 08:48:01;;;;;;;0.93;0.93;;;;;;;22.68;56.66;101832.84;5117137;27;20119;-68
2021/07/10 08:50:27;;;;;;;0.88;0.88;;;;;;;22.67;56.71;101834.66;5110585;27;20057;-68
2021/07/10 08:52:53;;;;;;;1.00;0.90;;;;;;;22.69;57.11;101837.97;5069872;28;20040;-69
2021/07/10 08:55:20;;;;;;;0.90;0.90;;;;;;;22.72;56.68;101836.78;5103627;28;20047;-69
2021/07/10 08:57:45;;;;;;;0.85;0.70;;;;;;;22.77;57.15;101827.28;5101216;28;20477;-65
2021/07/10 09:00:12;;;;;;;0.80;0.80;;;;;;;22.72;57.51;101834.13;5105544;28;20036;-67
2021/07/10 09:02:41;;;;;;;0.80;0.80;;;;;;;22.73;57.18;101827.81;5104921;28;20031;-65
2021/07/10 09:05:08;;;;;;;0.52;0.52;;;;;;;22.74;57.10;101834.78;5098364;28;20083;-66
2021/07/10 09:08:12;;;;;;;0.50;0.50;;;;;;;22.77;56.78;101835.25;5080493;28;20681;-68
2021/07/10 09:10:40;;;;;;;0.50;0.50;;;;;;;22.82;56.69;101822.34;5083425;28;20036;-65
2021/07/10 09:13:06;;;;;;;0.55;0.55;;;;;;;22.89;56.82;101819.78;5107617;28;20583;-67
2021/07/10 09:15:32;;;;;;;0.60;0.60;;;;;;;23.03;56.72;101812.91;5076740;28;20035;-72
2021/07/10 09:17:58;;;;;;;0.40;0.40;;;;;;;23.13;56.31;101805.50;5100851;28;20062;-70
2021/07/10 09:20:26;;;;;;;0.57;0.57;;;;;;;23.19;55.95;101810.94;5043995;28;20063;-70
2021/07/10 09:22:52;;;;;;;0.40;0.40;;;;;;;23.24;55.92;101812.22;5086465;28;20058;-70
2021/07/10 09:25:30;;;;;;;0.50;0.50;;;;;;;23.27;55.64;101809.22;5076317;28;20561;-69
2021/07/10 09:27:57;;;;;;;0.60;0.60;;;;;;;23.28;55.69;101806.38;5102692;28;20032;-70
2021/07/10 09:30:39;;;;;;;0.50;0.50;;;;;;;23.30;55.60;101809.69;5076460;28;20103;-70
2021/07/10 09:33:18;;;;;;;0.50;0.50;;;;;;;23.34;55.50;101800.38;5085916;28;20044;-70
2021/07/10 09:35:58;;;;;;;0.60;0.60;;;;;;;23.38;55.43;101803.47;5080954;28;20048;-74
2021/07/10 09:38:29;;;;;;;0.52;0.52;;;;;;;23.39;55.25;101802.47;5105170;28;20089;-75
2021/07/10 09:41:05;;;;;;;0.57;0.57;;;;;;;23.38;55.50;101796.34;5059049;28;20809;-75
2021/07/10 09:43:34;;;;;;;0.63;0.63;;;;;;;23.38;55.83;101799.00;5085082;28;20490;-72
2021/07/10 09:46:02;;;;;;;0.70;0.70;;;;;;;23.31;56.14;101803.34;5079649;28;20091;-67
2021/07/10 09:48:30;;;;;;;0.60;0.60;;;;;;;23.35;56.23;101798.53;5087578;28;20050;-68
2021/07/10 09:51:20;;;;;;;0.60;0.60;;;;;;;23.37;56.00;101791.19;5069605;27;20028;-68
2021/07/10 09:54:07;;;;;;;0.50;0.50;;;;;;;23.38;55.89;101793.69;5101552;27;20064;-68
2021/07/10 09:56:38;;;;;;;0.70;0.70;;;;;;;23.41;55.76;101789.81;5060089;27;20040;-67
2021/07/10 09:59:19;;;;;;;0.50;0.50;;;;;;;23.40;55.64;101794.31;5095481;28;20043;-68
2021/07/10 10:01:45;;;;;;;0.50;0.50;;;;;;;23.42;55.58;101794.97;5066301;28;20102;-68
2021/07/10 10:04:25;;;;;;;0.60;0.60;;;;;;;23.45;55.61;101788.47;5078968;28;20033;-68
2021/07/10 10:06:51;;;;;;;0.73;0.73;;;;;;;23.46;55.54;101790.94;5078963;28;20038;-68
2021/07/10 10:09:28;;;;;;;0.90;0.90;;;;;;;23.50;55.52;101794.03;5099200;28;20028;-68
2021/07/10 10:11:59;;;;;;;1.20;0.80;;;;;;;23.49;55.38;101784.41;5051654;28;20035;-67
2021/07/10 10:14:27;;;;;;;0.60;0.60;;;;;;;23.49;55.20;101792.41;5100554;28;20081;-68
2021/07/10 10:16:53;;;;;;;0.52;0.52;;;;;;;23.50;55.27;101788.72;5074579;28;20032;-67
2021/07/10 10:19:24;;;;;;;0.70;0.70;;;;;;;23.49;55.31;101790.56;5093524;28;20036;-68
2021/07/10 10:21:52;;;;;;;0.60;0.60;;;;;;;23.48;55.42;101788.91;5080787;28;20437;-67
2021/07/10 10:24:18;;;;;;;0.95;0.95;;;;;;;23.49;55.60;101792.41;5089083;28;20117;-67
2021/07/10 10:26:45;;;;;;;0.65;0.65;;;;;;;23.48;55.33;101796.88;5073551;28;20570;-67
2021/07/10 10:29:12;;;;;;;0.85;0.85;;;;;;;23.49;55.50;101792.41;5078276;28;20115;-67
2021/07/10 10:31:40;;;;;;;0.85;0.85;;;;;;;23.49;55.34;101790.56;5075028;28;20739;-67
2021/07/10 10:34:07;;;;;;;0.80;0.80;;;;;;;23.49;55.59;101787.09;5073127;28;20040;-67
2021/07/10 10:36:37;;;;;;;1.00;1.00;;;;;;;23.48;55.55;101788.09;5088865;28;20056;-67
2021/07/10 10:39:30;;;;;;;0.68;0.68;;;;;;;23.49;55.37;101787.09;5070287;28;20045;-67
2021/07/10 10:42:07;;;;;;;0.80;0.80;;;;;;;23.47;55.51;101787.25;5087112;28;20052;-67
2021/07/10 10:44:43;;;;;;;0.95;0.95;;;;;;;23.48;55.42;101786.25;5057333;28;20122;-68
2021/07/10 10:47:11;;;;;;;0.70;0.70;;;;;;;23.48;55.37;101777.44;5083202;28;20439;-67
2021/07/10 10:49:45;;;;;;;0.70;0.70;;;;;;;23.48;55.40;101775.63;5072247;28;20061;-68
2021/07/10 10:52:16;;;;;;;0.93;0.93;;;;;;;23.51;55.45;101775.25;5106324;28;20080;-68
2021/07/10 10:54:51;;;;;;;0.80;0.80;;;;;;;23.52;55.24;101766.31;5091480;28;20472;-67
2021/07/10 10:57:17;;;;;;;0.90;0.90;;;;;;;23.55;55.37;101769.59;5082458;28;20119;-67
2021/07/10 10:59:44;;;;;;;0.80;0.80;;;;;;;23.55;55.23;101767.75;5069706;28;20034;-68
2021/07/10 11:02:24;;;;;;;0.80;0.80;;;;;;;23.57;54.99;101756.97;5096507;28;20099;-68
2021/07/10 11:04:56;;;;;;;0.70;0.70;;;;;;;23.57;55.11;101752.50;5074380;28;20386;-67
2021/07/10 11:07:24;;;;;;;0.80;0.80;;;;;;;23.57;55.07;101755.16;5102630;28;20063;-67
2021/07/10 11:10:02;;;;;;;1.10;1.10;;;;;;;23.58;55.09;101748.81;5072736;28;20096;-67
2021/07/10 11:12:46;;;;;;;0.90;0.90;;;;;;;23.59;55.04;101752.31;5088579;28;20040;-67
2021/07/10 11:15:35;;;;;;;0.88;0.88;;;;;;;23.60;55.00;101753.94;5069429;28;20035;-67
2021/07/10 11:18:06;;;;;;;0.90;0.90;;;;;;;23.60;55.20;101746.81;5096804;28;20063;-67
2021/07/10 11:20:45;;;;;;;0.90;0.90;;;;;;;23.61;54.92;101745.78;5077398;28;20067;-67
2021/07/10 11:23:32;;;;;;;0.95;0.95;;;;;;;23.61;54.91;101739.66;5098978;28;20119;-67
2021/07/10 11:26:11;;;;;;;1.00;1.00;;;;;;;23.63;54.88;101741.09;5071741;28;20386;-67
2021/07/10 11:28:49;;;;;;;1.00;1.00;;;;;;;23.66;54.85;101737.25;5104938;28;20047;-67